Time;durP1;ratioP1;P1;durP2;ratioP2;P2;SDS_P1;SDS_P2;PMS_P1;PMS_P2;Temp;Humidity;BMP_temperature;BMP_pressure;BME280_temperature;BME280_humidity;BME280_pressure;Samples;Min_cycle;Max_cycle;Signal;HPM_P1;HPM_P2
2022/12/10 00:00:35;;;;;;;35.20;21.65;;;0.80;99.90;;;;;;5050896;28;20041;-54
2022/12/10 00:03:01;;;;;;;30.45;20.15;;;0.70;99.90;;;;;;5049439;28;20025;-53
2022/12/10 00:05:27;;;;;;;28.27;20.58;;;0.80;99.90;;;;;;5032922;28;20009;-54
2022/12/10 00:07:52;;;;;;;30.60;20.75;;;0.70;99.90;;;;;;5042183;28;20020;-54
2022/12/10 00:10:18;;;;;;;30.80;21.42;;;0.70;99.90;;;;;;5031262;28;20030;-50
2022/12/10 00:12:44;;;;;;;27.98;19.92;;;0.80;99.90;;;;;;5044114;27;20076;-54
2022/12/10 00:15:10;;;;;;;29.42;20.83;;;0.80;99.90;;;;;;5033183;28;20038;-50
2022/12/10 00:17:36;;;;;;;29.80;20.83;;;0.80;99.90;;;;;;5031028;28;20430;-53
2022/12/10 00:20:02;;;;;;;31.20;20.52;;;0.80;99.90;;;;;;5035021;27;20033;-53
2022/12/10 00:22:27;;;;;;;29.40;19.48;;;0.80;99.90;;;;;;5049350;27;20037;-53
2022/12/10 00:24:53;;;;;;;30.95;21.33;;;0.80;99.90;;;;;;5035970;28;20034;-54
2022/12/10 00:27:18;;;;;;;32.60;20.85;;;0.80;99.90;;;;;;5030963;28;20036;-53
2022/12/10 00:29:44;;;;;;;31.83;20.92;;;0.80;99.90;;;;;;5044213;28;20041;-53
2022/12/10 00:32:10;;;;;;;30.60;20.30;;;0.80;99.90;;;;;;5050355;27;20388;-54
2022/12/10 00:34:36;;;;;;;33.30;21.83;;;0.80;99.90;;;;;;5048742;27;20029;-53
2022/12/10 00:37:02;;;;;;;32.25;21.08;;;0.70;99.90;;;;;;5035832;28;20481;-52
2022/12/10 00:39:28;;;;;;;29.27;20.55;;;0.70;99.90;;;;;;5037438;28;20025;-51
2022/12/10 00:41:54;;;;;;;28.50;19.13;;;0.70;99.90;;;;;;5050098;28;20066;-52
2022/12/10 00:44:20;;;;;;;30.85;19.73;;;0.70;99.90;;;;;;5049174;28;20029;-55
2022/12/10 00:46:45;;;;;;;26.73;19.48;;;0.70;99.90;;;;;;5050441;27;20025;-54
2022/12/10 00:49:12;;;;;;;31.25;19.65;;;0.70;99.90;;;;;;5031275;28;20341;-56
2022/12/10 00:51:38;;;;;;;27.88;19.40;;;0.70;99.90;;;;;;5042651;28;20060;-54
2022/12/10 00:54:04;;;;;;;28.20;19.42;;;0.60;99.90;;;;;;5048789;28;20033;-53
2022/12/10 00:56:32;;;;;;;32.80;21.67;;;0.60;99.90;;;;;;5050297;27;20653;-52
2022/12/10 00:58:58;;;;;;;31.13;21.02;;;0.70;99.90;;;;;;5039223;28;20029;-55
2022/12/10 01:01:33;;;;;;;27.92;19.33;;;0.70;99.90;;;;;;5030386;28;20124;-51
2022/12/10 01:04:01;;;;;;;31.33;20.85;;;0.70;99.90;;;;;;5030171;28;20575;-54
2022/12/10 01:06:48;;;;;;;29.33;19.98;;;0.70;99.90;;;;;;5029245;28;20487;-53
2022/12/10 01:09:33;;;;;;;29.80;20.08;;;0.70;99.90;;;;;;5030216;28;20049;-56
2022/12/10 01:12:01;;;;;;;32.97;20.70;;;0.80;99.90;;;;;;5049469;27;20048;-55
2022/12/10 01:14:29;;;;;;;32.35;21.08;;;0.80;99.90;;;;;;5048683;28;20465;-53
2022/12/10 01:17:00;;;;;;;31.85;20.23;;;0.80;99.90;;;;;;5049989;28;20052;-51
2022/12/10 01:19:26;;;;;;;28.70;18.65;;;0.80;99.90;;;;;;5047097;28;20021;-54
2022/12/10 01:21:56;;;;;;;30.67;20.42;;;0.80;99.90;;;;;;5034700;28;20660;-53
2022/12/10 01:24:23;;;;;;;30.55;19.88;;;0.80;99.90;;;;;;5047950;27;20025;-55
2022/12/10 01:26:48;;;;;;;32.42;21.15;;;0.80;99.90;;;;;;5049988;28;20029;-54
2022/12/10 01:29:14;;;;;;;26.42;18.88;;;0.80;99.90;;;;;;5048116;27;20099;-56
2022/12/10 01:31:40;;;;;;;34.90;20.45;;;0.80;99.90;;;;;;5049566;28;20085;-53
2022/12/10 01:34:09;;;;;;;31.08;20.25;;;0.80;99.90;;;;;;5048135;27;20381;-52
2022/12/10 01:36:41;;;;;;;28.52;20.23;;;0.70;99.90;;;;;;5048348;27;20068;-51
2022/12/10 01:39:10;;;;;;;35.20;22.23;;;0.70;99.90;;;;;;5041544;28;20026;-52
2022/12/10 01:41:41;;;;;;;30.95;20.35;;;0.80;99.90;;;;;;5029825;28;20030;-51
2022/12/10 01:44:09;;;;;;;26.30;17.42;;;0.80;99.90;;;;;;5029572;28;20017;-52
2022/12/10 01:46:41;;;;;;;29.88;19.23;;;0.80;99.90;;;;;;5029811;28;20053;-53
2022/12/10 01:49:10;;;;;;;32.78;20.85;;;0.80;99.90;;;;;;5029597;28;20032;-53
2022/12/10 01:51:38;;;;;;;29.10;19.42;;;0.80;99.90;;;;;;5041932;28;20025;-51
2022/12/10 01:54:08;;;;;;;30.27;18.95;;;0.80;99.90;;;;;;5048436;28;20025;-53
2022/12/10 01:56:40;;;;;;;33.83;20.00;;;0.70;99.90;;;;;;5049238;28;20087;-55
2022/12/10 01:59:07;;;;;;;29.25;20.00;;;0.70;99.90;;;;;;5049029;28;20020;-52
2022/12/10 02:01:50;;;;;;;27.38;18.35;;;0.70;99.90;;;;;;5049185;27;20029;-53
2022/12/10 02:04:16;;;;;;;;;;;0.70;99.90;;;;;;5043443;28;20029;-53
2022/12/10 02:06:59;;;;;;;27.02;19.08;;;0.70;99.90;;;;;;5029760;28;19909;-51
2022/12/10 02:09:47;;;;;;;27.95;18.95;;;0.70;99.90;;;;;;5039535;28;20036;-50
2022/12/10 02:12:27;;;;;;;28.08;18.42;;;0.70;99.90;;;;;;5047953;27;20152;-53
2022/12/10 02:14:58;;;;;;;27.88;18.88;;;0.70;99.90;;;;;;5047406;28;20029;-50
2022/12/10 02:17:34;;;;;;;31.23;19.88;;;0.70;99.90;;;;;;5029592;28;20064;-53
2022/12/10 02:20:23;;;;;;;36.05;22.05;;;0.70;99.90;;;;;;5029058;28;20033;-54
2022/12/10 02:23:03;;;;;;;29.77;20.73;;;0.70;99.90;;;;;;5039267;27;20047;-54
2022/12/10 02:26:06;;;;;;;33.45;20.55;;;0.70;99.90;;;;;;5047066;28;20021;-54
2022/12/10 02:28:41;;;;;;;30.92;20.55;;;0.70;99.90;;;;;;5039261;27;20037;-53
2022/12/10 02:31:10;;;;;;;29.13;19.20;;;0.70;99.90;;;;;;5028980;28;20033;-52
2022/12/10 02:33:48;;;;;;;30.33;19.77;;;0.70;99.90;;;;;;5028986;28;20093;-52
2022/12/10 02:36:16;;;;;;;30.00;20.40;;;0.60;99.90;;;;;;5028765;28;20108;-52
2022/12/10 02:38:43;;;;;;;26.90;18.92;;;0.60;99.90;;;;;;5029228;28;20361;-55
2022/12/10 02:41:18;;;;;;;32.65;19.83;;;0.60;99.90;;;;;;5041257;28;20488;-53
2022/12/10 02:43:47;;;;;;;29.63;18.88;;;0.60;99.90;;;;;;5033132;28;20017;-52
2022/12/10 02:46:13;;;;;;;28.67;20.20;;;0.70;99.90;;;;;;5048766;28;20064;-53
2022/12/10 02:48:40;;;;;;;30.48;19.60;;;0.70;99.90;;;;;;5037345;27;20348;-52
2022/12/10 02:51:05;;;;;;;30.30;19.75;;;0.70;99.90;;;;;;5028618;28;20033;-52
2022/12/10 02:53:31;;;;;;;28.17;19.83;;;0.70;99.90;;;;;;5028741;28;20037;-51
2022/12/10 02:56:26;;;;;;;32.83;20.63;;;0.70;99.90;;;;;;5040620;27;20107;-52
2022/12/10 02:59:16;;;;;;;27.80;19.10;;;0.70;99.90;;;;;;5048233;27;20040;-52
2022/12/10 03:02:11;;;;;;;31.33;20.83;;;0.70;99.90;;;;;;5048319;28;20033;-52
2022/12/10 03:04:47;;;;;;;29.45;19.27;;;0.70;99.90;;;;;;5037997;28;20499;-49
2022/12/10 03:07:27;;;;;;;29.45;19.50;;;0.70;99.90;;;;;;5047318;27;20037;-54
2022/12/10 03:10:09;;;;;;;31.08;19.52;;;0.70;99.90;;;;;;5035076;28;20113;-54
2022/12/10 03:12:47;;;;;;;31.98;19.65;;;0.70;99.90;;;;;;5026243;28;20752;-49
2022/12/10 03:15:14;;;;;;;28.90;19.83;;;0.70;99.90;;;;;;5028361;28;20037;-49
2022/12/10 03:17:42;;;;;;;32.63;21.50;;;0.70;99.90;;;;;;5031203;27;20029;-51
2022/12/10 03:20:12;;;;;;;33.33;20.63;;;0.70;99.90;;;;;;5036804;28;20376;-54
2022/12/10 03:22:40;;;;;;;29.65;19.88;;;0.70;99.90;;;;;;5036769;28;20028;-56
2022/12/10 03:25:10;;;;;;;30.27;20.70;;;0.70;99.90;;;;;;5038565;28;20026;-55
2022/12/10 03:27:39;;;;;;;36.20;21.70;;;0.70;99.90;;;;;;5039925;27;20594;-55
2022/12/10 03:30:05;;;;;;;32.50;20.80;;;0.70;99.90;;;;;;5037732;27;20112;-55
2022/12/10 03:32:32;;;;;;;38.08;23.75;;;0.80;99.90;;;;;;5051744;27;20037;-53
2022/12/10 03:35:00;;;;;;;40.10;23.40;;;0.80;99.90;;;;;;5042410;28;20569;-54
2022/12/10 03:37:28;;;;;;;42.35;23.02;;;0.80;99.90;;;;;;5051446;28;20029;-56
2022/12/10 03:39:55;;;;;;;35.90;21.95;;;0.80;99.90;;;;;;5035345;28;20492;-55
2022/12/10 03:42:21;;;;;;;38.20;24.13;;;0.70;99.90;;;;;;5031808;28;20128;-54
2022/12/10 03:44:50;;;;;;;35.70;22.50;;;0.70;99.90;;;;;;5031786;28;20029;-53
2022/12/10 03:47:16;;;;;;;36.55;22.13;;;0.70;99.90;;;;;;5031336;28;20037;-54
2022/12/10 03:49:42;;;;;;;32.50;21.88;;;0.70;99.90;;;;;;5031575;28;20380;-52
2022/12/10 03:52:08;;;;;;;32.63;21.23;;;0.70;99.90;;;;;;5031425;28;20029;-53
2022/12/10 03:54:34;;;;;;;32.67;21.98;;;0.70;99.90;;;;;;5031476;28;20037;-53
2022/12/10 03:57:00;;;;;;;40.38;22.70;;;0.60;99.90;;;;;;5030044;28;20446;-51
2022/12/10 03:59:26;;;;;;;36.00;22.40;;;0.60;99.90;;;;;;5049909;27;20040;-53
2022/12/10 04:01:51;;;;;;;34.83;22.52;;;0.60;99.90;;;;;;5050986;28;20033;-55
2022/12/10 04:04:17;;;;;;;41.65;23.67;;;0.60;99.90;;;;;;5038100;28;20045;-51
2022/12/10 04:06:43;;;;;;;39.20;23.38;;;0.60;99.90;;;;;;5047363;28;20089;-52
2022/12/10 04:09:14;;;;;;;35.38;21.90;;;0.60;99.90;;;;;;5031269;28;20025;-53
2022/12/10 04:11:40;;;;;;;37.58;21.95;;;0.60;99.90;;;;;;5031194;28;20045;-53
2022/12/10 04:16:50;;;;;;;36.65;21.90;;;0.60;99.90;;;;;;5031161;28;20020;-53
2022/12/10 04:19:18;;;;;;;39.20;24.50;;;0.60;99.90;;;;;;5037048;28;20484;-54
2022/12/10 04:27:17;;;;;;;42.45;23.00;;;0.60;99.90;;;;;;5031232;28;20487;-56
2022/12/10 04:29:43;;;;;;;39.88;23.38;;;0.60;99.90;;;;;;5031987;28;20034;-53
2022/12/10 04:32:09;;;;;;;35.17;22.58;;;0.60;99.90;;;;;;5044117;28;20033;-54
2022/12/10 04:34:34;;;;;;;37.03;23.33;;;0.60;99.90;;;;;;5050208;28;20029;-52
2022/12/10 04:37:02;;;;;;;37.45;23.73;;;0.50;99.90;;;;;;5050590;28;20043;-53
2022/12/10 04:39:28;;;;;;;41.90;24.98;;;0.60;99.90;;;;;;5048897;27;20116;-54
2022/12/10 04:41:54;;;;;;;37.47;24.35;;;0.60;99.90;;;;;;5031232;28;20101;-51
2022/12/10 04:44:25;;;;;;;37.90;21.73;;;0.60;99.90;;;;;;5030638;28;20036;-50
2022/12/10 04:46:51;;;;;;;35.67;21.20;;;0.60;99.90;;;;;;5030908;28;20045;-55
2022/12/10 04:49:17;;;;;;;34.55;21.83;;;0.60;99.90;;;;;;5030491;28;20079;-54
2022/12/10 04:51:43;;;;;;;31.67;20.83;;;0.60;99.90;;;;;;5030707;28;20032;-52
2022/12/10 04:54:09;;;;;;;38.55;21.67;;;0.60;99.90;;;;;;5032183;28;20021;-50
2022/12/10 04:56:35;;;;;;;37.13;21.40;;;0.60;99.90;;;;;;5049966;27;20033;-55
2022/12/10 04:59:01;;;;;;;34.78;22.45;;;0.60;99.90;;;;;;5049968;28;20084;-52
2022/12/10 05:01:28;;;;;;;35.53;21.83;;;0.60;99.90;;;;;;5040576;28;20045;-54
2022/12/10 05:03:54;;;;;;;35.13;21.65;;;0.70;99.90;;;;;;5030445;28;20040;-53
2022/12/10 05:06:20;;;;;;;31.75;21.15;;;0.70;99.90;;;;;;5030411;28;20045;-51
2022/12/10 05:08:47;;;;;;;29.92;19.42;;;0.70;99.90;;;;;;5030301;28;20532;-52
2022/12/10 05:11:18;;;;;;;34.78;21.30;;;0.70;99.90;;;;;;5047584;28;20361;-54
2022/12/10 05:13:44;;;;;;;34.50;20.05;;;0.70;99.90;;;;;;5048675;28;20043;-54
2022/12/10 05:16:12;;;;;;;32.70;21.55;;;0.70;99.90;;;;;;5049221;28;20052;-51
2022/12/10 05:18:39;;;;;;;37.03;21.88;;;0.80;99.90;;;;;;5048413;27;20033;-51
2022/12/10 05:21:07;;;;;;;31.63;21.17;;;0.80;99.90;;;;;;5049618;27;20033;-52
2022/12/10 05:23:36;;;;;;;31.27;20.40;;;0.80;99.90;;;;;;5049948;27;20025;-55
2022/12/10 05:26:08;;;;;;;30.80;19.83;;;0.80;99.90;;;;;;5049629;28;20028;-53
2022/12/10 05:28:41;;;;;;;30.63;22.05;;;0.80;99.90;;;;;;5040993;28;20025;-52
2022/12/10 05:31:22;;;;;;;39.50;23.80;;;0.80;99.90;;;;;;5047032;28;20073;-52
2022/12/10 05:33:48;;;;;;;37.33;24.77;;;0.80;99.90;;;;;;5035777;27;20056;-50
2022/12/10 05:36:15;;;;;;;33.33;21.77;;;0.80;99.90;;;;;;5029717;28;20041;-52
2022/12/10 05:38:42;;;;;;;33.65;21.70;;;0.80;99.90;;;;;;5030237;28;20025;-53
2022/12/10 05:41:19;;;;;;;27.92;20.15;;;0.80;99.90;;;;;;5045537;28;20075;-54
2022/12/10 05:43:44;;;;;;;31.73;21.50;;;0.90;99.90;;;;;;5048326;28;20468;-52
2022/12/10 05:46:14;;;;;;;29.65;20.23;;;0.90;99.90;;;;;;5048124;28;20029;-52
2022/12/10 05:48:40;;;;;;;28.80;19.23;;;0.90;99.90;;;;;;5049646;28;20021;-55
2022/12/10 05:51:08;;;;;;;33.75;21.40;;;0.80;99.90;;;;;;5049193;28;20376;-52
2022/12/10 05:53:35;;;;;;;31.52;21.38;;;0.80;99.90;;;;;;5049202;28;20029;-52
2022/12/10 05:56:15;;;;;;;31.77;21.02;;;0.80;99.90;;;;;;5032360;28;20499;-52
2022/12/10 05:58:42;;;;;;;32.55;23.13;;;0.80;99.90;;;;;;5029718;28;20026;-51
2022/12/10 06:01:10;;;;;;;37.63;21.52;;;0.70;99.90;;;;;;5035260;28;20017;-55
2022/12/10 06:03:36;;;;;;;30.30;20.27;;;0.70;99.90;;;;;;5034699;27;20615;-54
2022/12/10 06:06:02;;;;;;;35.95;22.30;;;0.70;99.90;;;;;;5029326;28;20113;-53
2022/12/10 06:08:28;;;;;;;36.58;22.30;;;0.70;99.90;;;;;;5028286;28;20102;-53
2022/12/10 06:10:53;;;;;;;33.65;22.05;;;0.80;99.90;;;;;;5029051;28;20088;-55
2022/12/10 06:13:25;;;;;;;35.00;22.90;;;0.80;99.90;;;;;;5029214;28;20437;-50
2022/12/10 06:15:51;;;;;;;29.45;21.50;;;0.80;99.90;;;;;;5029267;28;20468;-55
2022/12/10 06:18:16;;;;;;;33.58;22.92;;;0.70;99.90;;;;;;5029164;28;20049;-55
2022/12/10 06:20:42;;;;;;;33.92;21.05;;;0.80;99.90;;;;;;5039228;28;20037;-52
2022/12/10 06:23:08;;;;;;;32.30;20.52;;;0.70;99.90;;;;;;5030914;28;20469;-53
2022/12/10 06:25:33;;;;;;;37.13;22.38;;;0.70;99.90;;;;;;5032433;28;20085;-53
2022/12/10 06:27:59;;;;;;;32.60;20.63;;;0.60;99.90;;;;;;5048859;27;20356;-53
2022/12/10 06:30:25;;;;;;;34.65;21.85;;;0.70;99.90;;;;;;5048895;27;20033;-53
2022/12/10 06:32:51;;;;;;;65.95;33.65;;;0.60;99.90;;;;;;5048929;27;20053;-54
2022/12/10 06:35:16;;;;;;;170.35;108.10;;;0.60;99.90;;;;;;5048828;28;20082;-56
2022/12/10 06:37:42;;;;;;;119.28;81.90;;;0.60;99.90;;;;;;5049114;28;20376;-54
2022/12/10 06:40:08;;;;;;;49.35;32.55;;;0.60;99.90;;;;;;5042677;28;20029;-54
2022/12/10 06:42:34;;;;;;;44.55;27.50;;;0.60;99.90;;;;;;5048545;27;20104;-53
2022/12/10 06:44:59;;;;;;;39.13;24.50;;;0.60;99.90;;;;;;5047962;27;20405;-52
2022/12/10 06:47:25;;;;;;;40.42;24.45;;;0.60;99.90;;;;;;5048937;28;20032;-54
2022/12/10 06:49:51;;;;;;;33.65;22.50;;;0.70;99.90;;;;;;5048269;28;20073;-55
2022/12/10 06:52:17;;;;;;;32.55;20.77;;;0.60;99.90;;;;;;5037906;28;20487;-52
2022/12/10 06:54:42;;;;;;;35.28;23.25;;;0.70;99.90;;;;;;5028915;28;20555;-52
2022/12/10 06:57:08;;;;;;;58.95;32.40;;;0.70;99.90;;;;;;5036729;28;20542;-50
2022/12/10 06:59:34;;;;;;;45.35;25.60;;;0.70;99.90;;;;;;5048289;27;20033;-51
2022/12/10 07:02:00;;;;;;;36.10;23.58;;;0.70;99.90;;;;;;5048053;27;20029;-55
2022/12/10 07:04:26;;;;;;;36.03;21.92;;;0.70;99.90;;;;;;5048238;28;20021;-51
2022/12/10 07:06:52;;;;;;;41.67;23.83;;;0.70;99.90;;;;;;5030057;28;20354;-52
2022/12/10 07:09:17;;;;;;;41.47;24.63;;;0.70;99.90;;;;;;5044109;27;20475;-55
2022/12/10 07:11:43;;;;;;;35.83;22.73;;;0.80;99.90;;;;;;5047812;28;20046;-56
2022/12/10 07:14:27;;;;;;;35.33;23.95;;;0.90;99.90;;;;;;5046507;27;20592;-53
2022/12/10 07:16:52;;;;;;;;;;;1.00;99.90;;;;;;5048479;28;20470;-55
2022/12/10 07:19:18;;;;;;;38.40;25.38;;;0.90;99.90;;;;;;5043860;28;19909;-55
2022/12/10 07:21:45;;;;;;;40.60;26.52;;;0.80;99.90;;;;;;5029060;28;20029;-52
2022/12/10 07:24:13;;;;;;;85.97;54.15;;;0.80;99.90;;;;;;5038388;27;20033;-55
2022/12/10 07:26:41;;;;;;;46.97;30.20;;;0.80;99.90;;;;;;5061588;27;20025;-55
2022/12/10 07:29:12;;;;;;;41.80;27.83;;;0.80;99.90;;;;;;5094237;27;20025;-53
2022/12/10 07:31:37;;;;;;;41.65;28.25;;;0.90;99.90;;;;;;5133299;27;20697;-55
2022/12/10 07:34:03;;;;;;;38.60;24.08;;;0.90;99.90;;;;;;5121749;27;20052;-53
2022/12/10 07:36:28;;;;;;;41.03;25.95;;;0.90;99.90;;;;;;5065100;27;20036;-53
2022/12/10 07:38:54;;;;;;;41.33;27.48;;;1.00;99.90;;;;;;5091626;27;20023;-52
2022/12/10 07:41:21;;;;;;;47.53;29.23;;;1.00;99.90;;;;;;5054062;27;20029;-53
2022/12/10 07:43:47;;;;;;;44.45;28.45;;;1.10;99.90;;;;;;5066631;27;20019;-54
2022/12/10 07:46:17;;;;;;;39.88;26.05;;;1.10;99.90;;;;;;5113714;27;20028;-53
2022/12/10 07:48:45;;;;;;;39.03;23.67;;;1.20;99.90;;;;;;5047786;28;20013;-55
2022/12/10 07:51:10;;;;;;;39.75;23.40;;;1.30;99.90;;;;;;5047857;28;20041;-54
2022/12/10 07:53:36;;;;;;;43.50;29.25;;;1.30;99.90;;;;;;5047893;27;20025;-53
2022/12/10 07:56:03;;;;;;;40.50;27.38;;;1.40;99.90;;;;;;5038410;28;20072;-54
2022/12/10 07:58:29;;;;;;;52.35;35.10;;;1.40;99.90;;;;;;5033290;28;20356;-54
2022/12/10 08:00:55;;;;;;;55.72;35.72;;;1.50;99.90;;;;;;5034455;28;20030;-51
2022/12/10 08:03:20;;;;;;;55.75;31.63;;;1.60;99.90;;;;;;5027982;28;20036;-52
2022/12/10 08:05:46;;;;;;;45.63;30.27;;;1.70;99.90;;;;;;5040441;27;20014;-54
2022/12/10 08:08:12;;;;;;;46.03;28.92;;;1.70;99.90;;;;;;5029533;28;20166;-53
2022/12/10 08:10:38;;;;;;;39.67;25.73;;;1.80;99.90;;;;;;5040293;28;20025;-51
2022/12/10 08:13:05;;;;;;;33.67;24.05;;;2.00;99.90;;;;;;5030988;28;20038;-55
2022/12/10 08:15:31;;;;;;;36.05;23.40;;;2.10;99.90;;;;;;5047308;27;20036;-52
2022/12/10 08:17:57;;;;;;;36.10;24.70;;;2.10;99.90;;;;;;5050029;28;20029;-53
2022/12/10 08:20:24;;;;;;;32.70;21.88;;;2.20;99.90;;;;;;5050071;27;20101;-51
2022/12/10 08:22:50;;;;;;;33.83;23.33;;;2.30;99.90;;;;;;5048947;27;20017;-55
2022/12/10 08:25:16;;;;;;;35.03;24.50;;;2.30;99.90;;;;;;5049881;28;20025;-55
2022/12/10 08:27:42;;;;;;;36.35;24.42;;;2.40;99.90;;;;;;5033097;28;20056;-51
2022/12/10 08:30:08;;;;;;;32.30;22.23;;;2.40;99.90;;;;;;5029815;28;20029;-52
2022/12/10 08:32:34;;;;;;;42.78;28.00;;;2.30;99.90;;;;;;5030317;28;20034;-54
2022/12/10 08:35:00;;;;;;;32.50;23.67;;;2.30;99.90;;;;;;5037571;28;20025;-54
2022/12/10 08:37:26;;;;;;;36.85;22.95;;;2.30;99.90;;;;;;5050569;28;20081;-52
2022/12/10 08:39:51;;;;;;;36.92;25.15;;;2.30;99.90;;;;;;5042787;28;20114;-53
2022/12/10 08:42:17;;;;;;;48.28;33.78;;;2.30;99.90;;;;;;5031728;28;20620;-56
2022/12/10 08:44:43;;;;;;;44.40;28.70;;;2.40;99.90;;;;;;5030504;28;20021;-55
2022/12/10 08:47:08;;;;;;;40.90;28.55;;;2.30;99.90;;;;;;5030530;28;20081;-51
2022/12/10 08:49:34;;;;;;;40.05;25.95;;;2.30;99.90;;;;;;5030601;28;20082;-55
2022/12/10 08:52:00;;;;;;;51.95;37.35;;;2.30;99.90;;;;;;5030079;28;20033;-54
2022/12/10 08:54:25;;;;;;;37.05;25.50;;;2.20;99.90;;;;;;5030396;28;20033;-54
2022/12/10 08:56:51;;;;;;;46.08;30.55;;;2.20;99.90;;;;;;5038546;27;20041;-50
2022/12/10 08:59:17;;;;;;;39.85;25.90;;;2.20;99.90;;;;;;5048397;28;20096;-53
2022/12/10 09:01:42;;;;;;;68.88;48.72;;;2.20;99.90;;;;;;5050259;28;20069;-53
2022/12/10 09:04:09;;;;;;;46.00;31.13;;;2.20;99.90;;;;;;5050192;28;20025;-50
2022/12/10 09:06:34;;;;;;;54.35;34.90;;;2.30;99.90;;;;;;5048774;28;20504;-56
2022/12/10 09:09:01;;;;;;;51.83;36.83;;;2.40;99.90;;;;;;5049389;28;20074;-52
2022/12/10 09:11:30;;;;;;;79.35;44.85;;;2.50;99.90;;;;;;5049686;28;20163;-56
2022/12/10 09:13:57;;;;;;;358.30;169.55;;;2.60;99.90;;;;;;5039360;27;20052;-54
2022/12/10 09:16:32;;;;;;;157.70;82.88;;;2.70;99.90;;;;;;5031203;28;20026;-55
2022/12/10 09:18:59;;;;;;;105.90;60.75;;;2.80;99.90;;;;;;5038275;27;20113;-55
2022/12/10 09:21:25;;;;;;;291.30;150.82;;;2.90;99.90;;;;;;5050393;27;20025;-57
2022/12/10 09:23:51;;;;;;;275.40;152.52;;;3.00;99.90;;;;;;5050198;28;20059;-55
2022/12/10 09:26:18;;;;;;;45.88;29.05;;;3.00;99.90;;;;;;5046819;27;20034;-54
2022/12/10 09:28:45;;;;;;;96.25;59.63;;;3.20;99.90;;;;;;5046156;28;20029;-55
2022/12/10 09:31:12;;;;;;;66.47;46.00;;;3.10;99.90;;;;;;5049648;28;20033;-54
2022/12/10 09:33:38;;;;;;;51.65;35.80;;;3.20;99.90;;;;;;5042179;27;20062;-53
2022/12/10 09:36:09;;;;;;;40.38;25.88;;;3.30;99.90;;;;;;5085370;27;20067;-54
2022/12/10 09:38:36;;;;;;;36.65;24.88;;;3.20;99.90;;;;;;5129622;27;20025;-53
2022/12/10 09:41:10;;;;;;;35.55;23.27;;;3.20;99.90;;;;;;5035373;27;20112;-57
2022/12/10 09:43:35;;;;;;;38.30;24.48;;;3.20;99.90;;;;;;5118678;27;20058;-52
2022/12/10 09:46:21;;;;;;;40.05;27.67;;;3.20;99.90;;;;;;5154272;27;20435;-53
2022/12/10 09:49:03;;;;;;;37.42;25.20;;;3.10;99.90;;;;;;5039910;27;20087;-53
2022/12/10 09:51:35;;;;;;;35.33;25.70;;;3.10;99.90;;;;;;5041546;27;20025;-54
2022/12/10 09:54:04;;;;;;;36.22;24.85;;;3.10;99.90;;;;;;5075912;27;20013;-55
2022/12/10 09:56:34;;;;;;;38.33;24.10;;;3.10;99.90;;;;;;5056384;27;20025;-55
2022/12/10 09:59:08;;;;;;;44.00;26.45;;;3.20;99.90;;;;;;5150176;27;20023;-55
2022/12/10 10:01:34;;;;;;;41.83;23.83;;;3.20;99.90;;;;;;5048456;27;20021;-57
2022/12/10 10:04:03;;;;;;;42.70;31.00;;;3.40;99.90;;;;;;5150282;27;20050;-52
2022/12/10 10:06:29;;;;;;;43.03;30.15;;;3.30;99.90;;;;;;5149886;27;20015;-56
2022/12/10 10:08:58;;;;;;;35.63;23.98;;;3.30;99.90;;;;;;5028754;28;20026;-53
2022/12/10 10:11:29;;;;;;;36.85;24.48;;;3.30;99.90;;;;;;5018089;28;20141;-56
2022/12/10 10:13:58;;;;;;;38.35;23.90;;;3.30;99.90;;;;;;5025041;27;20036;-52
2022/12/10 10:16:30;;;;;;;37.30;23.80;;;3.30;99.90;;;;;;5017141;28;20575;-55
2022/12/10 10:19:27;;;;;;;39.23;26.20;;;3.30;99.90;;;;;;5020072;27;20491;-54
2022/12/10 10:21:53;;;;;;;41.85;27.35;;;3.40;99.90;;;;;;5013379;28;20043;-54
2022/12/10 10:24:24;;;;;;;37.88;26.15;;;3.30;99.90;;;;;;5018408;28;20046;-52
2022/12/10 10:26:56;;;;;;;36.22;24.60;;;3.20;99.90;;;;;;5023561;27;20026;-54
2022/12/10 10:29:26;;;;;;;45.60;31.55;;;3.20;99.90;;;;;;5027215;28;20032;-54
2022/12/10 10:32:30;;;;;;;43.30;29.00;;;3.20;99.90;;;;;;5018090;28;20035;-53
2022/12/10 10:34:59;;;;;;;40.88;26.65;;;3.20;99.90;;;;;;5028698;28;20056;-54
2022/12/10 10:37:31;;;;;;;42.17;25.27;;;3.20;99.90;;;;;;5038437;28;20166;-54
2022/12/10 10:39:58;;;;;;;46.47;26.25;;;3.40;99.90;;;;;;5037798;27;20052;-52
2022/12/10 10:42:40;;;;;;;33.80;24.40;;;3.30;99.90;;;;;;5038104;27;20025;-50
2022/12/10 10:45:37;;;;;;;38.80;24.95;;;3.40;99.90;;;;;;5024491;27;20033;-56
2022/12/10 10:48:18;;;;;;;39.55;25.30;;;3.50;99.90;;;;;;5020272;28;20049;-57
2022/12/10 10:50:48;;;;;;;36.42;24.92;;;3.50;99.90;;;;;;5028222;28;20033;-52
2022/12/10 10:53:32;;;;;;;40.88;25.90;;;3.50;99.90;;;;;;5022026;28;20110;-57
2022/12/10 10:56:20;;;;;;;38.03;23.60;;;3.30;99.90;;;;;;5028524;28;20049;-55
2022/12/10 10:59:06;;;;;;;40.13;24.10;;;3.40;99.90;;;;;;5018246;27;20098;-55
2022/12/10 11:01:51;;;;;;;39.40;25.70;;;3.30;99.90;;;;;;5028701;28;20033;-57
2022/12/10 11:04:30;;;;;;;34.05;24.88;;;3.30;99.90;;;;;;5028530;28;20112;-55
2022/12/10 11:07:01;;;;;;;41.45;24.85;;;3.30;99.90;;;;;;5033948;28;20040;-50
2022/12/10 11:09:33;;;;;;;35.85;24.02;;;3.30;99.90;;;;;;5042950;28;20036;-51
2022/12/10 11:12:21;;;;;;;36.05;24.35;;;3.20;99.90;;;;;;5017317;28;20480;-52
2022/12/10 11:14:47;;;;;;;36.85;24.00;;;3.10;99.90;;;;;;5018144;28;20030;-58
2022/12/10 11:17:23;;;;;;;37.45;25.23;;;3.10;99.90;;;;;;5022114;27;20124;-56
2022/12/10 11:19:59;;;;;;;40.00;24.48;;;3.10;99.90;;;;;;5017792;28;20564;-53
2022/12/10 11:22:29;;;;;;;35.58;24.63;;;3.00;99.90;;;;;;5017595;28;20048;-53
2022/12/10 11:24:55;;;;;;;41.03;25.70;;;3.00;99.90;;;;;;5018164;28;20045;-54
2022/12/10 11:27:43;;;;;;;35.97;23.83;;;3.00;99.90;;;;;;5017931;28;20021;-52
2022/12/10 11:30:22;;;;;;;37.38;25.85;;;3.00;99.90;;;;;;5017388;28;20021;-54
2022/12/10 11:33:12;;;;;;;42.00;26.67;;;2.90;99.90;;;;;;5017821;28;20052;-55
2022/12/10 11:35:44;;;;;;;39.65;24.63;;;2.90;99.90;;;;;;5017322;28;20030;-51
2022/12/10 11:38:18;;;;;;;40.30;26.48;;;2.80;99.90;;;;;;5017271;28;20441;-54
2022/12/10 11:40:52;;;;;;;47.13;28.70;;;2.80;99.90;;;;;;5017860;28;20496;-51
2022/12/10 11:43:50;;;;;;;51.05;27.42;;;2.80;99.90;;;;;;5017015;28;20049;-52
2022/12/10 11:46:31;;;;;;;42.50;25.98;;;2.80;99.90;;;;;;5019813;28;20034;-51
2022/12/10 11:49:21;;;;;;;37.08;24.60;;;2.70;99.90;;;;;;5020692;28;20033;-53
2022/12/10 11:52:10;;;;;;;38.35;24.65;;;2.80;99.90;;;;;;5020879;28;20374;-55
2022/12/10 11:54:57;;;;;;;31.55;21.25;;;2.70;99.90;;;;;;5019814;28;20029;-52
2022/12/10 11:57:38;;;;;;;32.78;21.98;;;2.70;99.90;;;;;;5023853;27;20067;-56
2022/12/10 12:00:23;;;;;;;34.17;23.13;;;2.60;99.90;;;;;;5020049;28;20041;-52
2022/12/10 12:03:18;;;;;;;32.72;23.27;;;2.50;99.90;;;;;;5026585;27;20483;-53
2022/12/10 12:06:20;;;;;;;37.28;23.95;;;2.50;99.90;;;;;;5008463;28;20501;-56
2022/12/10 12:09:06;;;;;;;37.92;24.42;;;2.40;99.90;;;;;;5020371;28;20051;-52
2022/12/10 12:11:53;;;;;;;37.13;24.45;;;2.30;99.90;;;;;;5021116;28;20046;-55
2022/12/10 12:14:34;;;;;;;36.47;24.40;;;2.30;99.90;;;;;;5020660;28;20038;-53
2022/12/10 12:17:18;;;;;;;50.83;31.52;;;2.30;99.90;;;;;;5020687;28;20021;-51
2022/12/10 12:19:51;;;;;;;63.63;41.33;;;2.30;99.90;;;;;;5019901;28;20091;-55
2022/12/10 12:22:37;;;;;;;;;;;2.30;99.90;;;;;;5021014;28;20154;-53
2022/12/10 12:25:16;;;;;;;41.38;27.30;;;2.30;99.90;;;;;;5028218;27;19985;-56
2022/12/10 12:27:58;;;;;;;39.38;25.80;;;2.30;99.90;;;;;;5020530;28;20029;-56
2022/12/10 12:30:23;;;;;;;42.33;25.67;;;2.30;99.90;;;;;;5020430;28;20041;-56
2022/12/10 12:33:28;;;;;;;43.47;27.17;;;2.30;99.90;;;;;;5019969;28;20041;-51
2022/12/10 12:36:16;;;;;;;51.10;28.55;;;2.20;99.90;;;;;;5020064;28;20033;-52
2022/12/10 12:38:53;;;;;;;45.72;28.27;;;2.20;99.90;;;;;;5020363;28;20080;-54
2022/12/10 12:41:40;;;;;;;42.63;28.92;;;2.20;99.90;;;;;;5029652;28;20090;-57
2022/12/10 12:44:21;;;;;;;45.85;29.27;;;2.20;99.90;;;;;;5031458;28;20021;-55
2022/12/10 12:46:48;;;;;;;50.47;31.02;;;2.20;99.90;;;;;;5030728;28;20021;-50
2022/12/10 12:49:24;;;;;;;50.10;29.20;;;2.10;99.90;;;;;;5029826;28;20103;-51
2022/12/10 12:52:33;;;;;;;46.35;29.45;;;2.10;99.90;;;;;;5028784;28;20052;-53
2022/12/10 12:55:05;;;;;;;49.17;29.67;;;2.10;99.90;;;;;;5027749;28;20022;-52
2022/12/10 12:57:45;;;;;;;47.58;28.38;;;2.10;99.90;;;;;;5029712;28;20104;-53
2022/12/10 13:00:21;;;;;;;45.42;27.92;;;2.00;99.90;;;;;;5033902;28;20032;-53
2022/12/10 13:03:17;;;;;;;58.67;35.50;;;2.10;99.90;;;;;;5049036;27;20126;-55
2022/12/10 13:05:43;;;;;;;63.58;37.80;;;2.10;99.90;;;;;;5049273;28;20021;-52